Página principal
METAR-TAF:

METAR-TAF

Aeroportos :

Kunming, China

latitude: 25-01N, longitude: 102-41E, altura: 1892 m

Observação actual do tempo

O boletim foi feito há 1 hora e 14 minutos, às 06:00 UTC
Vento 12 kt de es-nordeste
Temperatura 9°C
Humidade 93%
Pressão 1025 hPa
Visibilidade 10 km ou mais
Poucas nuvensa uma altura de 2000 ft
Encobertoa uma altura de 3300 ft

METAR: ZPPP 270600Z 06006MPS 9999 FEW020 OVC033 09/08 Q1025 NOSIG

Hora: 15:14 (07:14 UTC)

Previsão

O boletim foi feito há 6 horas e 0 minutos, às 01:14 UTC
Previsão válida de 27 às 06 UTC a 28 às 06 UTC
Vento 14 kt de nordeste
Visibilidade 10 km ou mais
Nuvens dispersasa uma altura de 2000 ft
Encobertoa uma altura de 3300 ft

TAF: ZPPP 270114Z 2706/2806 04007MPS 9999 SCT020 OVC033 TX16/2708Z TN09/2723Z

Observações e previsões do tempo de mais de 4000 aeroportos (mensagens METAR e TAF).

As estações disponíveis são os pontos amarelos e vermelhos sobre o mapa.

Mova o rato sobre o mapa para ver o nome da estação.

Depois clique no ponto para visualizar as observações e previsões meteorológicas.

Para alterar o mapa : clique nos botões verdes com uma cruz preta para aumentar o zoom; no botão verde com uma pitada de zoom; ou nas setas verdes para mapas adjacentes.


METAR-TAF: